• Join FlightAware (Why Join?)
  • Login
  • US Flag 
01:28AM EDT


 

Airport Tracker/Info


-or-


 

Live Flight TrackerFlight Track Log ✈ N4746H ✈ 11-Mar-2014 ✈ KFRH - KHEF

Flight Track Log - Related Links

Times and Time Zones

All times are in EDT time to prevent confusion due to time zone crossing. See the N4746H flight status page for this flight to view local times or setup timezone preferences in your user account.

Time Position Orientation Groundspeed Altitude Reporting Facility
EDT Latitude Longitude Course Direction KTS MPH feet Rate Location/Type
01:32PM 38.5328 -86.3319 91° East 114 131 5,000  Level Indianapolis Center
01:33PM 38.5339 -86.2903 88° East 115 132 5,400 240 Climbing Indianapolis Center
01:34PM 38.5364 -86.2456 86° East 120 138 5,500  Climbing Indianapolis Center
01:35PM 38.5205 -86.3347 86° East  Level FlightAware Approximate
01:35PM 38.5375 -86.1917 88° East 143 165 5,500  Level Indianapolis Center
01:36PM 38.5235 -86.2846 86° East  Level FlightAware Approximate
01:36PM 38.5392 -86.1228 88° East 157 181 5,500  Level Indianapolis Center
01:37PM 38.5425 -86.0656 86° East 158 182 5,500  Level Indianapolis Center
01:38PM 38.5478 -86.0056 84° East 166 191 5,500  Level Indianapolis Center
01:39PM 38.5528 -85.9456 84° East 166 191 5,500  Level Indianapolis Center
01:40PM 38.5553 -85.8861 87° East 166 191 5,500  Level Indianapolis Center
01:41PM 38.5578 -85.8258 87° East 166 191 5,500  Level Indianapolis Center
01:42PM 38.5606 -85.7675 86° East 166 191 5,500  Level Indianapolis Center
01:43PM 38.5628 -85.7097 87° East 166 191 5,500  Level Indianapolis Center
01:44PM 38.5636 -85.6378 89° East 166 191 5,500  Level Indianapolis Center
01:45PM 38.5672 -85.5792 85° East 166 191 5,500  Level Indianapolis Center
01:46PM 38.5722 -85.5208 84° East 166 191 5,500  Level Indianapolis Center
01:47PM 38.5778 -85.4614 83° East 166 191 5,500  Level Indianapolis Center
01:48PM 38.5822 -85.4033 84° East 166 191 5,500  Level Indianapolis Center
01:49PM 38.5856 -85.3444 86° East 166 191 5,500  Level Indianapolis Center
01:50PM 38.5872 -85.2856 88° East 166 191 5,500  Level Indianapolis Center
01:51PM 38.5883 -85.2264 89° East 166 191 5,500  Level Indianapolis Center
01:53PM 38.6000 -85.1167 82° East 166 191 5,500  Level Cincinnati TRACON
01:54PM 38.6000 -85.0667 90° East 165 190 5,500  Level Cincinnati TRACON
01:55PM 38.6000 -85.0167 90° East 169 194 5,500  Level Cincinnati TRACON
01:56PM 38.6000 -84.9500 90° East 167 192 5,500  Level Cincinnati TRACON
01:57PM 38.6000 -84.9000 90° East 167 192 5,500  Level Cincinnati TRACON
01:58PM 38.6000 -84.8333 90° East 170 196 5,500  Level Cincinnati TRACON
01:59PM 38.6167 -84.7833 67° East 167 192 5,500  Level Cincinnati TRACON
02:00PM 38.6167 -84.7167 90° East 169 194 5,500  Level Cincinnati TRACON
02:00PM 38.6192 -84.6947 82° East 167 192 5,500  Level Indianapolis Center
02:01PM 38.6233 -84.6347 85° East 167 192 5,500  Level Indianapolis Center
02:02PM 38.6208 -84.5758 93° East 167 192 5,500  Level Indianapolis Center
02:03PM 38.6194 -84.5161 92° East 167 192 5,500  Level Indianapolis Center
02:04PM 38.6225 -84.4578 86° East 167 192 5,500  Level Indianapolis Center
02:05PM 38.6256 -84.3897 87° East 167 192 5,500  Level Indianapolis Center
02:06PM 38.6278 -84.3297 87° East 167 192 5,500  Level Indianapolis Center
02:07PM 38.6336 -84.2703 83° East 167 192 5,500  Level Indianapolis Center
02:08PM 38.6383 -84.2100 84° East 167 192 5,500  Level Indianapolis Center
02:10PM 38.6422 -84.1506 85° East 167 192 5,500  Level Indianapolis Center
02:11PM 38.6453 -84.0911 86° East 167 192 5,500  Level Indianapolis Center
02:12PM 38.6481 -84.0217 87° East 168 193 5,500  Level Indianapolis Center
02:13PM 38.6500 -83.9633 88° East 167 192 5,500  Level Indianapolis Center
02:14PM 38.6522 -83.9033 87° East 167 192 5,500  Level Indianapolis Center
02:15PM 38.6533 -83.8444 89° East 167 192 5,500  Level Indianapolis Center
02:16PM 38.6558 -83.7844 87° East 167 192 5,500  Level Indianapolis Center
02:17PM 38.6575 -83.7228 88° East 168 193 5,500  Level Indianapolis Center
02:18PM 38.6600 -83.6661 87° East 168 193 5,500  Level Indianapolis Center
02:19PM 38.6631 -83.5925 87° East 171 197 5,500  Level Indianapolis Center
02:20PM 38.6656 -83.5336 87° East 170 196 5,500  Level Indianapolis Center
02:21PM 38.6683 -83.4719 87° East 170 196 5,500  Level Indianapolis Center
02:22PM 38.6706 -83.4125 87° East 170 196 5,500  Level Indianapolis Center
02:23PM 38.6725 -83.3522 88° East 170 196 5,500  Level Indianapolis Center
02:24PM 38.6747 -83.2936 87° East 170 196 5,500  Level Indianapolis Center
02:25PM 38.6767 -83.2211 88° East 170 196 5,500  Level Indianapolis Center
02:26PM 38.6783 -83.1647 88° East 170 196 5,500  Level Indianapolis Center
02:27PM 38.6778 -83.1053 91° East 170 196 5,500  Level Indianapolis Center
02:28PM 38.6794 -83.0444 88° East 170 196 5,500  Level Indianapolis Center
02:29PM 38.6792 -82.9722 90° East 170 196 5,500  Level Indianapolis Center
02:30PM 38.6800 -82.9122 89° East 170 196 5,500  Level Indianapolis Center
02:31PM 38.6831 -82.8511 86° East 170 196 5,500  Level Indianapolis Center
02:32PM 38.6867 -82.7917 86° East 170 196 5,500  Level Indianapolis Center
02:33PM 38.6900 -82.7303 86° East 170 196 5,500  Level Indianapolis Center
02:34PM 38.6922 -82.6692 87° East 170 196 5,500  Level Indianapolis Center
02:35PM 38.6917 -82.6078 91° East 170 196 5,500  Level Indianapolis Center
02:36PM 38.6900 -82.5344 92° East 170 196 5,500  Level Indianapolis Center
02:37PM 38.6903 -82.4750 90° East 170 196 5,500  Level Indianapolis Center
02:38PM 38.6906 -82.4147 90° East 170 196 5,500  Level Indianapolis Center
02:39PM 38.6939 -82.3556 86° East 170 196 5,500  Level Indianapolis Center
02:40PM 38.6958 -82.2950 88° East 170 196 5,500  Level Indianapolis Center
02:42PM 38.7003 -82.2339 85° East 170 196 5,500  Level Indianapolis Center
02:43PM 38.7033 -82.1742 86° East 170 196 5,500  Level Indianapolis Center
02:44PM 38.7067 -82.1025 87° East 170 196 5,500  Level Indianapolis Center
02:45PM 38.7089 -82.0425 87° East 170 196 5,500  Level Indianapolis Center
02:46PM 38.7117 -81.9828 87° East 170 196 5,500  Level Indianapolis Center
02:47PM 38.7117 -81.9225 90° East 169 194 5,500  Level Indianapolis Center
02:48PM 38.7089 -81.8631 93° East 169 194 5,500  Level Indianapolis Center
02:49PM 38.7072 -81.8025 92° East 169 194 5,500  Level Indianapolis Center
02:50PM 38.7047 -81.7317 93° East 168 193 5,500  Level Indianapolis Center
02:51PM 38.7108 -81.6708 83° East 170 196 5,500  Level Indianapolis Center
02:52PM 38.7161 -81.6119 83° East 170 196 5,500  Level Indianapolis Center
02:53PM 38.7189 -81.5503 87° East 169 194 5,500  Level Indianapolis Center
02:54PM 38.7189 -81.4869 90° East 169 194 5,500  Level Indianapolis Center
02:55PM 38.7206 -81.4256 88° East 169 194 5,500  Level Indianapolis Center
02:56PM 38.7219 -81.3642 88° East 170 196 5,500  Level Indianapolis Center
02:57PM 38.7228 -81.3028 89° East 170 196 5,500  Level Indianapolis Center
02:58PM 38.7242 -81.2422 88° East 170 196 5,500  Level Indianapolis Center
02:59PM 38.7256 -81.1703 89° East 170 196 5,500  Level Indianapolis Center
03:00PM 38.7258 -81.1125 90° East 169 194 5,500  Level Indianapolis Center
03:01PM 38.7261 -81.0539 90° East 167 192 5,500  Level Indianapolis Center
03:02PM 38.7261 -80.9953 90° East 167 192 5,600  Climbing Indianapolis Center
03:03PM 38.7278 -80.9406 88° East 163 188 5,500 -60 Descending Indianapolis Center
03:04PM 38.7297 -80.8881 87° East 154 177 5,500  Level Indianapolis Center
03:05PM 38.7303 -80.8272 89° East 147 169 5,500  Level Indianapolis Center
03:06PM 38.7297 -80.7719 91° East 148 170 5,600  Climbing Indianapolis Center
03:07PM 38.7297 -80.7192 90° East 151 174 5,500  Descending Indianapolis Center
03:08PM 38.7319 -80.6714 87° East 143 165 5,700 420 Climbing Indianapolis Center
03:09PM 38.7372 -80.6247 82° East 137 158 6,400 660 Climbing Indianapolis Center
03:10PM 38.7406 -80.5794 85° East 133 153 7,100 540 Climbing Indianapolis Center
03:12PM 38.7408 -80.5300 90° East 120 138 7,600 240 Climbing Indianapolis Center
03:13PM 38.7403 -80.4764 91° East 146 168 7,600  Level Indianapolis Center
03:14PM 38.7358 -80.4167 95° East 165 190 7,600  Level Indianapolis Center
03:15PM 38.7317 -80.3547 95° East 170 196 7,600  Level Indianapolis Center
03:16PM 38.7281 -80.2947 94° East 170 196 7,600  Level Indianapolis Center
03:17PM 38.7336 -80.2336 83° East 170 196 7,600  Level Indianapolis Center
03:18PM 38.7383 -80.1728 84° East 170 196 7,600  Level Indianapolis Center
03:19PM 38.7367 -80.0994 92° East 171 197 7,600  Level Indianapolis Center
03:21PM 38.7339 -79.9644 91° East 166 191 7,600  Level Washington Center
03:22PM 38.7336 -79.9083 90° East 161 185 7,600  Level Washington Center
03:23PM 38.7339 -79.8472 90° East 161 185 7,600  Level Washington Center
03:24PM 38.7339 -79.7861 90° East 156 180 7,600  Level Washington Center
03:25PM 38.7336 -79.7328 90° East 156 180 7,600  Level Washington Center
03:26PM 38.7333 -79.6794 90° East 156 180 7,600  Level Washington Center
03:27PM 38.7333 -79.6236 90° East 156 180 7,600  Level Washington Center
03:28PM 38.7347 -79.5758 88° East 156 180 7,600 -60 Level Washington Center
03:29PM 38.7367 -79.5228 87° East 156 180 7,500 -60 Descending Washington Center
03:30PM 38.7383 -79.4669 88° East 156 180 7,500  Level Washington Center
03:31PM 38.7400 -79.4164 88° East 156 180 7,500  Level Washington Center
03:32PM 38.7419 -79.3553 88° East 156 180 7,500  Level Washington Center
03:33PM 38.7394 -79.3044 94° East 151 174 7,500  Level Washington Center
03:34PM 38.7389 -79.2514 91° East 151 174 7,500  Level Washington Center
03:35PM 38.7364 -79.1928 93° East 164 189 7,500  Level Washington Center
03:36PM 38.7339 -79.1367 93° East 159 183 7,500  Level Washington Center
03:37PM 38.7356 -79.0836 88° East 159 183 7,500  Level Washington Center
03:38PM 38.7350 -79.0275 91° East 159 183 7,500  Level Washington Center
03:39PM 38.7347 -78.9689 90° East 159 183 7,500  Level Washington Center
03:40PM 38.7361 -78.9131 88° East 159 183 7,500  Level Washington Center
03:41PM 38.7356 -78.8572 91° East 159 183 7,600  Climbing Washington Center
03:42PM 38.7350 -78.8014 91° East 159 183 7,600  Level Washington Center
03:43PM 38.7325 -78.7453 93° East 159 183 7,600  Level Washington Center
03:44PM 38.7297 -78.6919 94° East 159 183 7,600  Level Washington Center
03:45PM 38.7331 -78.6336 86° East 159 183 7,600  Level Washington Center
03:46PM 38.7347 -78.5778 88° East 159 183 7,600 -60 Level Washington Center
03:47PM 38.7361 -78.5167 88° East 159 183 7,500 -60 Descending Washington Center
03:48PM 38.7375 -78.4608 88° East 159 183 7,500 -60 Level Washington Center
03:49PM 38.7386 -78.4050 89° East 159 183 7,400 -300 Descending Washington Center
03:50PM 38.7381 -78.3464 91° East 159 183 6,900 -540 Descending Washington Center
03:51PM 38.7331 -78.2903 96° East 159 183 6,400 -600 Descending Washington Center
03:52PM 38.7303 -78.2317 93° East 159 183 5,800 -540 Descending Washington Center
03:53PM 38.7272 -78.1731 94° East 159 183 5,400 -480 Descending Washington Center
03:54PM 38.7283 -78.1172 89° East 159 183 4,900 -900 Descending Washington Center
03:57PM 38.7333 -77.9833 87° East 147 169 2,500 -840 Descending Potomac TRACON
03:58PM 38.7333 -77.9333 90° East 131 151 2,200 -120 Descending Potomac TRACON
03:59PM 38.7333 -77.8833 90° East 132 152 2,300  Climbing Potomac TRACON
03:59PM 38.7333 -77.8500 90° East 138 159 2,200 -60 Descending Potomac TRACON
04:01PM 38.7333 -77.7833 90° East 134 154 2,200  Level Potomac TRACON
04:01PM 38.7333 -77.7500 90° East 135 155 2,200 -120 Level Potomac TRACON
04:02PM 38.7333 -77.7000 90° East 137 158 2,000 -300 Descending Potomac TRACON
04:03PM 38.7333 -77.6500 90° East 132 152 1,700 -240 Descending Potomac TRACON
04:04PM 38.7333 -77.6000 90° East 134 154 1,600 -180 Descending Potomac TRACON
04:05PM 38.7333 -77.5667 90° East 110 127 1,400 -420 Descending Potomac TRACON
04:06PM 38.7500 -77.5333 57° Northeast 105 121 800 -600 Descending Potomac TRACON
04:08PM 38.7210 -77.5151 90° East  Level Estimated
04:15PM 38.7210 -77.5151 90° East  Level Estimated
04:16PM 38.7210 -77.5151 90° East  Level Estimated